Time;durP1;ratioP1;P1;durP2;ratioP2;P2;SDS_P1;SDS_P2;PMS_P1;PMS_P2;Temp;Humidity;BMP_temperature;BMP_pressure;BME280_temperature;BME280_humidity;BME280_pressure;Samples;Min_cycle;Max_cycle;Signal;HPM_P1;HPM_P2
2022/11/03 00:02:23;;;;;;;7.57;2.92;;;;;;;10.45;67.83;101137.28;5021550;28;20550;-77
2022/11/03 00:04:51;;;;;;;4.22;2.60;;;;;;;10.36;72.14;101138.66;5023575;28;20586;-77
2022/11/03 00:07:26;;;;;;;8.77;2.75;;;;;;;10.29;77.25;101144.44;5020642;28;20451;-76
2022/11/03 00:09:54;;;;;;;6.97;2.80;;;;;;;10.17;81.55;101148.28;5023320;28;20084;-77
2022/11/03 00:12:23;;;;;;;4.93;2.45;;;;;;;10.07;83.37;101146.16;5022462;28;20096;-77
2022/11/03 00:14:51;;;;;;;4.95;2.58;;;;;;;9.99;85.23;101157.94;5028932;28;20131;-77
2022/11/03 00:17:28;;;;;;;7.72;3.00;;;;;;;9.94;85.01;101154.28;5023879;28;20488;-77
2022/11/03 00:19:57;;;;;;;6.68;3.22;;;;;;;9.87;85.29;101166.06;5025268;28;20065;-74
2022/11/03 00:22:25;;;;;;;6.15;3.03;;;;;;;9.83;86.31;101166.81;5024376;28;20049;-75
2022/11/03 00:24:54;;;;;;;4.72;2.33;;;;;;;9.80;86.30;101164.97;5023930;28;20118;-75
2022/11/03 00:27:23;;;;;;;6.15;3.22;;;;;;;9.81;86.15;101171.91;5020070;28;20112;-76
2022/11/03 00:29:57;;;;;;;7.47;3.00;;;;;;;9.72;86.49;101175.84;5024331;28;20053;-75
2022/11/03 00:32:27;;;;;;;5.22;3.03;;;;;;;9.63;88.21;101176.34;5020747;28;20099;-75
2022/11/03 00:34:55;;;;;;;7.47;3.15;;;;;;;9.60;89.61;101182.28;5020265;28;20060;-77
2022/11/03 00:37:24;;;;;;;3.60;2.60;;;;;;;9.57;90.24;101178.66;5019849;28;20108;-76
2022/11/03 00:39:52;;;;;;;4.85;3.22;;;;;;;9.55;90.09;101186.38;5021481;28;20080;-76
2022/11/03 00:42:21;;;;;;;4.22;2.88;;;;;;;9.56;87.75;101189.84;5022995;28;20049;-75
2022/11/03 00:44:49;;;;;;;6.93;2.78;;;;;;;9.54;87.28;101196.63;5025436;28;20075;-76
2022/11/03 00:47:18;;;;;;;4.88;3.00;;;;;;;9.52;87.29;101193.13;5022166;28;20045;-75
2022/11/03 00:49:48;;;;;;;6.65;3.30;;;;;;;9.47;87.28;101195.50;5024148;28;20071;-75
2022/11/03 00:52:22;;;;;;;6.35;3.33;;;;;;;9.35;88.11;101201.06;5023827;28;20057;-75
2022/11/03 00:54:50;;;;;;;5.63;3.35;;;;;;;9.27;89.73;101205.00;5024439;28;20056;-76
2022/11/03 00:57:19;;;;;;;4.00;2.70;;;;;;;9.26;93.68;101208.41;5024244;28;20049;-77
2022/11/03 00:59:48;;;;;;;5.10;3.10;;;;;;;9.26;93.33;101211.00;5020149;28;20113;-77
2022/11/03 01:02:16;;;;;;;8.05;3.47;;;;;;;9.23;91.93;101222.09;5024741;28;20049;-76
2022/11/03 01:07:32;;;;;;;4.82;2.90;;;;;;;9.18;89.96;101227.84;5028005;28;20622;-76
2022/11/03 01:10:00;;;;;;;6.65;2.97;;;;;;;9.09;90.69;101242.94;5022786;28;20110;-74
2022/11/03 01:12:29;;;;;;;6.97;3.08;;;;;;;9.00;90.96;101233.09;5028465;28;20218;-75
2022/11/03 01:14:57;;;;;;;5.97;3.08;;;;;;;8.93;93.16;101234.56;5020890;28;20503;-75
2022/11/03 01:17:27;;;;;;;5.20;3.20;;;;;;;8.87;94.98;101242.03;5018161;28;20057;-75
2022/11/03 01:19:56;;;;;;;8.02;3.78;;;;;;;8.76;93.42;101238.09;5021508;28;20041;-75
2022/11/03 01:22:26;;;;;;;6.25;3.13;;;;;;;8.72;93.51;101236.19;5024111;28;20119;-74
2022/11/03 01:24:56;;;;;;;7.35;2.92;;;;;;;8.68;95.35;101254.91;5021045;28;20664;-75
2022/11/03 01:27:24;;;;;;;7.18;3.83;;;;;;;8.64;95.22;101256.47;5020560;28;20053;-74
2022/11/03 01:29:53;;;;;;;5.70;3.13;;;;;;;8.62;95.82;101259.81;5020136;28;20054;-75
2022/11/03 01:32:21;;;;;;;5.65;3.70;;;;;;;8.60;96.72;101270.03;5023776;28;20041;-75
2022/11/03 01:34:53;;;;;;;6.85;3.72;;;;;;;8.59;97.49;101276.91;5017877;28;20049;-76
2022/11/03 01:37:21;;;;;;;9.70;3.72;;;;;;;8.61;96.47;101279.53;5021678;28;20050;-75
2022/11/03 01:39:50;;;;;;;9.93;4.07;;;;;;;8.62;95.82;101288.19;5018745;28;20138;-75
2022/11/03 01:42:20;;;;;;;6.78;3.50;;;;;;;8.62;95.08;101291.63;5020707;28;20062;-76
2022/11/03 01:44:50;;;;;;;7.63;3.80;;;;;;;8.59;95.39;101291.50;5020439;28;20075;-76
2022/11/03 01:47:26;;;;;;;5.15;3.40;;;;;;;8.56;96.74;101299.97;5021304;28;20111;-76
2022/11/03 01:50:01;;;;;;;7.03;3.83;;;;;;;8.55;97.68;101305.06;5021891;28;20049;-76
2022/11/03 01:52:35;;;;;;;5.63;3.60;;;;;;;8.53;99.20;101306.69;5022469;28;20653;-75
2022/11/03 01:55:08;;;;;;;6.90;3.60;;;;;;;8.50;100.00;101304.84;5022167;28;20553;-75
2022/11/03 01:57:40;;;;;;;;;;;;;;;8.48;100.00;101303.91;5023775;28;20042;-74
2022/11/03 02:00:10;;;;;;;5.93;3.47;;;;;;;8.47;100.00;101299.53;5024599;28;19935;-77
2022/11/03 02:02:38;;;;;;;5.30;3.55;;;;;;;8.49;100.00;101297.91;5023230;28;20049;-77
2022/11/03 02:05:10;;;;;;;7.25;3.08;;;;;;;8.51;100.00;101308.31;5025432;28;20129;-76
2022/11/03 02:07:44;;;;;;;7.60;4.03;;;;;;;8.53;100.00;101307.56;5021445;28;20435;-76
2022/11/03 02:10:12;;;;;;;6.32;3.17;;;;;;;8.53;100.00;101301.53;5031336;28;20049;-76
2022/11/03 02:12:44;;;;;;;8.00;3.05;;;;;;;8.53;100.00;101296.38;5028734;28;20056;-76
2022/11/03 02:15:15;;;;;;;5.97;3.45;;;;;;;8.55;100.00;101305.94;5022148;28;20057;-77
2022/11/03 02:17:47;;;;;;;6.72;3.70;;;;;;;8.58;99.30;101315.53;5023338;28;20037;-77
2022/11/03 02:20:21;;;;;;;9.93;4.70;;;;;;;8.57;95.93;101313.75;5028075;28;20444;-77
2022/11/03 02:23:21;;;;;;;14.63;5.65;;;;;;;8.53;93.48;101320.47;5024879;28;20045;-76
2022/11/03 02:25:53;;;;;;;8.70;5.10;;;;;;;8.50;92.12;101325.50;5020243;28;20480;-77
2022/11/03 02:28:24;;;;;;;7.40;4.90;;;;;;;8.49;91.38;101331.44;5022851;28;20061;-79
2022/11/03 02:31:11;;;;;;;10.18;5.45;;;;;;;8.50;91.70;101340.09;5021012;28;20433;-75
2022/11/03 02:33:50;;;;;;;9.25;5.45;;;;;;;8.50;91.79;101347.81;5021815;28;20696;-75
2022/11/03 02:36:23;;;;;;;8.02;5.45;;;;;;;8.50;92.42;101348.69;5019297;28;20091;-74
2022/11/03 02:38:58;;;;;;;9.15;5.90;;;;;;;8.51;93.18;101344.41;5019856;28;20491;-74
2022/11/03 02:41:30;;;;;;;10.23;5.30;;;;;;;8.49;91.84;101346.91;5018286;28;20500;-75
2022/11/03 02:43:59;;;;;;;7.32;5.25;;;;;;;8.48;92.57;101345.16;5021063;28;20443;-74
2022/11/03 02:46:28;;;;;;;9.80;4.90;;;;;;;8.51;91.99;101347.88;5016128;28;20077;-73
2022/11/03 02:48:57;;;;;;;9.82;5.97;;;;;;;8.55;92.31;101351.50;5017138;28;20108;-73
2022/11/03 02:51:26;;;;;;;6.97;5.18;;;;;;;8.56;93.84;101359.28;5017939;28;20045;-73
2022/11/03 02:54:05;;;;;;;8.85;4.82;;;;;;;8.56;95.13;101359.28;5014988;28;20045;-73
2022/11/03 02:56:40;;;;;;;9.75;6.25;;;;;;;8.54;95.06;101355.78;5012158;28;20065;-73
2022/11/03 02:59:12;;;;;;;10.82;5.10;;;;;;;8.53;95.43;101359.16;5019268;28;20045;-73
2022/11/03 03:01:47;;;;;;;7.68;5.35;;;;;;;8.52;95.62;101359.97;5025845;28;20050;-73
2022/11/03 03:04:21;;;;;;;8.25;5.05;;;;;;;8.47;93.87;101360.56;5017924;28;20045;-74
2022/11/03 03:06:56;;;;;;;6.45;4.60;;;;;;;8.40;95.02;101359.38;5011238;28;20049;-74
2022/11/03 03:09:30;;;;;;;8.38;5.03;;;;;;;8.36;92.77;101360.00;5013388;28;20114;-74
2022/11/03 03:12:02;;;;;;;10.23;5.50;;;;;;;8.32;95.09;101363.25;5012158;28;20050;-74
2022/11/03 03:14:36;;;;;;;9.80;5.57;;;;;;;8.32;94.74;101366.72;5014062;28;20455;-76
2022/11/03 03:17:09;;;;;;;9.77;5.28;;;;;;;8.34;94.67;101371.97;5016041;28;20060;-75
2022/11/03 03:19:49;;;;;;;11.90;5.90;;;;;;;8.32;94.55;101371.00;5016289;28;20585;-75
2022/11/03 03:22:29;;;;;;;7.82;4.75;;;;;;;8.32;94.34;101376.16;5019349;28;20099;-75
2022/11/03 03:25:02;;;;;;;8.15;5.10;;;;;;;8.32;93.46;101383.88;5013121;28;20100;-76
2022/11/03 03:27:40;;;;;;;11.05;5.50;;;;;;;8.30;94.02;101388.09;5012624;28;20045;-76
2022/11/03 03:30:09;;;;;;;9.32;5.85;;;;;;;8.27;93.78;101385.34;5015887;28;20119;-76
2022/11/03 03:32:41;;;;;;;8.48;5.40;;;;;;;8.25;93.17;101399.88;5012165;28;20041;-76
2022/11/03 03:35:15;;;;;;;8.50;5.60;;;;;;;8.22;93.73;101398.00;5014452;28;20525;-76
2022/11/03 03:37:48;;;;;;;10.20;5.90;;;;;;;8.19;94.12;101392.72;5016366;28;20558;-75
2022/11/03 03:40:22;;;;;;;9.25;5.63;;;;;;;8.15;93.66;101396.84;5014765;28;20049;-76
2022/11/03 03:42:53;;;;;;;10.32;5.57;;;;;;;8.10;92.61;101389.69;5010801;28;20103;-76
2022/11/03 03:45:22;;;;;;;12.63;6.03;;;;;;;8.08;93.93;101388.72;5029089;28;20060;-73
2022/11/03 03:47:51;;;;;;;8.50;5.63;;;;;;;8.04;94.01;101408.31;5039486;28;20049;-72
2022/11/03 03:50:20;;;;;;;8.75;5.85;;;;;;;8.02;93.43;101409.00;5041030;28;20045;-73
2022/11/03 03:52:49;;;;;;;11.15;5.68;;;;;;;7.96;93.03;101415.63;5042447;28;20072;-73
2022/11/03 03:55:21;;;;;;;11.00;5.80;;;;;;;7.93;93.16;101419.75;5045278;28;20383;-73
2022/11/03 03:57:53;;;;;;;6.87;5.07;;;;;;;7.88;93.95;101416.03;5037212;28;20106;-73
2022/11/03 04:00:22;;;;;;;9.00;5.55;;;;;;;7.85;94.64;101424.50;5043415;28;20279;-72
2022/11/03 04:02:50;;;;;;;9.27;5.13;;;;;;;7.82;94.65;101418.34;5034070;28;20134;-72
2022/11/03 04:05:19;;;;;;;11.57;5.60;;;;;;;7.78;93.82;101421.56;5041788;28;20586;-73
2022/11/03 04:07:50;;;;;;;10.07;5.68;;;;;;;7.73;93.24;101436.78;5040099;28;20517;-73
2022/11/03 04:10:20;;;;;;;8.27;5.55;;;;;;;7.69;93.62;101432.25;5035902;28;20053;-73
2022/11/03 04:23:59;;;;;;;8.77;5.63;;;;;;;7.52;95.88;101462.28;5040086;28;20056;-72
2022/11/03 04:26:29;;;;;;;9.45;5.45;;;;;;;7.52;95.81;101467.44;5041889;28;20053;-73
2022/11/03 04:29:02;;;;;;;10.50;5.50;;;;;;;7.52;96.75;101472.59;5038235;28;20492;-73
2022/11/03 04:31:35;;;;;;;10.07;5.68;;;;;;;7.51;96.21;101474.28;5044861;28;20040;-73
2022/11/03 04:34:11;;;;;;;8.82;5.28;;;;;;;7.50;96.29;101469.03;5042007;28;20049;-72
2022/11/03 04:36:39;;;;;;;9.55;5.50;;;;;;;7.50;97.38;101484.50;5040031;28;20556;-73
2022/11/03 04:39:19;;;;;;;11.93;5.57;;;;;;;7.49;97.48;101493.91;5044097;28;20045;-73
2022/11/03 04:41:48;;;;;;;8.35;5.25;;;;;;;7.48;97.89;101486.97;5047752;28;20041;-72
2022/11/03 04:44:19;;;;;;;11.80;6.35;;;;;;;7.49;98.27;101493.00;5037693;28;20045;-75
2022/11/03 04:46:47;;;;;;;11.23;5.35;;;;;;;7.49;98.48;101485.28;5042262;28;20052;-73
2022/11/03 04:49:22;;;;;;;8.50;5.28;;;;;;;7.47;98.02;101494.66;5047617;28;20111;-72
2022/11/03 04:51:51;;;;;;;9.90;6.63;;;;;;;7.48;98.55;101498.97;5046030;28;20107;-72
2022/11/03 04:54:25;;;;;;;9.30;4.78;;;;;;;7.48;98.54;101497.28;5037562;28;20041;-72
2022/11/03 04:56:54;;;;;;;9.75;5.38;;;;;;;7.46;97.95;101495.44;5036184;28;20049;-73
2022/11/03 04:59:24;;;;;;;10.80;5.00;;;;;;;7.43;98.63;101503.00;5034266;28;20484;-73
2022/11/03 05:01:52;;;;;;;7.32;5.32;;;;;;;7.38;99.51;101504.44;5040593;28;20498;-73
2022/11/03 05:04:21;;;;;;;10.40;5.35;;;;;;;7.38;100.00;101504.44;5044276;28;20491;-74
2022/11/03 05:06:54;;;;;;;7.43;5.35;;;;;;;7.40;100.00;101510.53;5040455;28;20063;-74
2022/11/03 05:09:26;;;;;;;7.93;4.63;;;;;;;7.41;100.00;101514.91;5040855;28;20742;-75
2022/11/03 05:11:55;;;;;;;9.07;5.68;;;;;;;7.41;100.00;101507.19;5041760;28;20049;-74
2022/11/03 05:14:31;;;;;;;10.30;5.93;;;;;;;7.43;100.00;101521.03;5043697;28;20049;-74
2022/11/03 05:17:02;;;;;;;10.00;5.35;;;;;;;7.40;99.94;101519.16;5043672;28;20045;-75
2022/11/03 05:19:34;;;;;;;8.48;5.18;;;;;;;7.38;99.46;101525.03;5044968;28;20041;-74
2022/11/03 05:22:05;;;;;;;12.00;5.03;;;;;;;7.30;98.41;101519.44;5047280;28;20055;-74
2022/11/03 05:24:36;;;;;;;10.82;4.97;;;;;;;7.27;98.17;101527.91;5038073;28;20548;-76
2022/11/03 05:27:04;;;;;;;9.52;5.00;;;;;;;7.26;98.26;101526.16;5043903;28;20087;-75
2022/11/03 05:29:37;;;;;;;10.10;5.40;;;;;;;7.25;96.96;101537.22;5043464;28;20053;-75
2022/11/03 05:32:13;;;;;;;9.77;4.28;;;;;;;7.22;96.37;101529.34;5044093;28;20044;-75
2022/11/03 05:34:44;;;;;;;8.82;4.78;;;;;;;7.20;97.00;101530.94;5041504;28;20052;-76
2022/11/03 05:37:25;;;;;;;6.57;3.92;;;;;;;7.18;96.80;101526.50;5038421;28;20049;-76
2022/11/03 05:39:54;;;;;;;6.03;4.22;;;;;;;7.14;96.26;101536.63;5037483;28;20122;-76
2022/11/03 05:42:32;;;;;;;6.30;3.63;;;;;;;7.08;96.20;101533.72;5046852;28;20108;-76
2022/11/03 05:45:04;;;;;;;7.60;4.57;;;;;;;7.04;95.56;101538.63;5049754;28;20145;-74
2022/11/03 05:47:39;;;;;;;8.82;4.38;;;;;;;7.00;95.34;101537.53;5046280;28;20045;-75
2022/11/03 05:50:21;;;;;;;13.50;4.70;;;;;;;6.92;95.35;101539.69;5045184;28;20122;-75
2022/11/03 05:52:54;;;;;;;11.10;4.38;;;;;;;6.90;97.18;101536.13;5039095;28;20559;-75
2022/11/03 05:55:30;;;;;;;9.65;5.20;;;;;;;6.91;98.22;101548.19;5049686;28;20135;-76
2022/11/03 05:58:00;;;;;;;10.32;5.35;;;;;;;6.88;98.95;101535.16;5044548;28;20041;-74
2022/11/03 06:00:38;;;;;;;6.65;5.07;;;;;;;6.90;99.88;101545.56;5043670;28;20130;-75
2022/11/03 06:03:07;;;;;;;6.95;4.15;;;;;;;6.92;99.59;101538.81;5042156;28;20053;-75
2022/11/03 06:05:35;;;;;;;10.10;5.00;;;;;;;6.92;99.99;101539.69;5047812;28;20048;-75
2022/11/03 06:08:13;;;;;;;7.15;5.20;;;;;;;6.96;100.00;101542.44;5034773;28;20053;-74
2022/11/03 06:10:46;;;;;;;6.95;4.45;;;;;;;6.99;100.00;101545.19;5045154;28;20163;-75
2022/11/03 06:13:19;;;;;;;6.72;4.53;;;;;;;7.00;100.00;101542.69;5038521;28;20045;-75
2022/11/03 06:15:57;;;;;;;8.02;5.38;;;;;;;7.02;100.00;101545.34;5039780;28;20047;-75
2022/11/03 06:18:30;;;;;;;6.60;4.22;;;;;;;7.05;100.00;101555.81;5040325;28;20863;-75
2022/11/03 06:21:03;;;;;;;7.45;4.35;;;;;;;7.02;100.00;101561.66;5041023;28;20496;-75
2022/11/03 06:23:34;;;;;;;6.22;4.38;;;;;;;7.01;100.00;101569.28;5042310;28;20053;-75
2022/11/03 06:26:04;;;;;;;7.50;4.35;;;;;;;7.00;100.00;101570.09;5037581;28;20053;-75
2022/11/03 06:28:37;;;;;;;8.90;4.30;;;;;;;7.03;100.00;101568.59;5040717;28;20078;-75
2022/11/03 06:31:18;;;;;;;7.78;4.97;;;;;;;7.04;100.00;101574.63;5043165;28;20208;-75
2022/11/03 06:33:47;;;;;;;7.57;4.30;;;;;;;7.01;100.00;101571.88;5043715;28;20091;-74
2022/11/03 06:36:19;;;;;;;7.85;4.50;;;;;;;7.01;100.00;101564.16;5040753;28;20046;-76
2022/11/03 06:38:51;;;;;;;8.50;4.80;;;;;;;7.02;100.00;101563.38;5038641;28;20044;-74
2022/11/03 06:41:25;;;;;;;5.37;3.70;;;;;;;7.00;100.00;101567.53;5040393;28;20509;-75
2022/11/03 06:43:53;;;;;;;8.00;4.55;;;;;;;7.00;100.00;101571.00;5039728;28;20040;-75
2022/11/03 06:46:25;;;;;;;7.63;4.50;;;;;;;7.04;100.00;101582.34;5025702;28;20525;-74
2022/11/03 06:48:56;;;;;;;7.22;4.13;;;;;;;7.08;100.00;101582.63;5022686;28;20584;-75
2022/11/03 06:51:27;;;;;;;6.88;4.38;;;;;;;7.10;100.00;101580.09;5020667;28;20105;-75
2022/11/03 06:53:58;;;;;;;7.50;4.43;;;;;;;7.16;100.00;101584.72;5017713;28;20057;-75
2022/11/03 06:56:30;;;;;;;9.15;5.05;;;;;;;7.17;100.00;101587.41;5020079;28;20041;-75
2022/11/03 06:59:01;;;;;;;7.78;5.03;;;;;;;7.19;100.00;101588.34;5022530;28;20072;-75
2022/11/03 07:01:34;;;;;;;8.30;5.45;;;;;;;7.24;100.00;101592.09;5025133;28;20065;-75
2022/11/03 07:04:03;;;;;;;;;;;;;;;7.27;100.00;101592.25;5018126;28;20119;-74
2022/11/03 07:06:35;;;;;;;9.80;5.13;;;;;;;7.31;100.00;101590.75;5018043;28;19929;-75
2022/11/03 07:09:06;;;;;;;7.65;4.38;;;;;;;7.32;100.00;101593.38;5016838;28;20950;-76
2022/11/03 07:11:41;;;;;;;5.93;4.63;;;;;;;7.30;100.00;101594.09;5023870;28;20061;-75
2022/11/03 07:14:15;;;;;;;8.57;4.47;;;;;;;7.27;100.00;101599.97;5020759;28;20053;-75
2022/11/03 07:16:48;;;;;;;9.05;4.45;;;;;;;7.26;100.00;101598.22;5018881;28;20115;-75
2022/11/03 07:19:21;;;;;;;8.43;5.10;;;;;;;7.21;100.00;101588.44;5022225;28;20099;-75
2022/11/03 07:21:49;;;;;;;;;;;;;;;7.20;100.00;101582.41;5016130;28;20050;-76
2022/11/03 07:24:27;;;;;;;8.95;4.88;;;;;;;7.17;100.00;101584.84;5021840;28;19929;-75
2022/11/03 07:27:01;;;;;;;11.27;6.13;;;;;;;7.16;100.00;101590.75;5018760;28;20038;-75
2022/11/03 07:29:31;;;;;;;11.40;5.20;;;;;;;7.16;100.00;101595.91;5019132;28;20064;-75
2022/11/03 07:32:08;;;;;;;12.55;5.97;;;;;;;7.20;100.00;101592.72;5025998;28;20069;-75
2022/11/03 07:34:36;;;;;;;9.82;5.20;;;;;;;7.22;100.00;101601.41;5017934;28;20052;-75
2022/11/03 07:37:05;;;;;;;7.68;4.70;;;;;;;7.26;100.00;101608.50;5020711;28;20092;-75
2022/11/03 07:39:38;;;;;;;8.77;4.43;;;;;;;7.30;100.00;101605.28;5021022;28;20053;-75
2022/11/03 07:42:16;;;;;;;9.18;4.68;;;;;;;7.33;100.00;101607.19;5021713;28;20660;-75
2022/11/03 07:44:44;;;;;;;7.95;4.40;;;;;;;7.37;100.00;101616.81;5021971;28;20053;-76
2022/11/03 07:47:19;;;;;;;6.90;4.68;;;;;;;7.37;100.00;101614.25;5043593;28;20041;-75
2022/11/03 07:49:49;;;;;;;9.90;4.45;;;;;;;7.36;100.00;101620.22;5047863;28;20049;-75
2022/11/03 07:52:20;;;;;;;8.23;4.70;;;;;;;7.40;100.00;101623.81;5043290;28;20045;-75
2022/11/03 07:54:49;;;;;;;6.60;4.47;;;;;;;7.43;100.00;101626.59;5039461;28;20486;-75
2022/11/03 07:57:23;;;;;;;8.75;5.22;;;;;;;7.40;100.00;101626.41;5037658;28;20130;-74
2022/11/03 07:59:54;;;;;;;10.25;5.55;;;;;;;7.39;100.00;101634.94;5036797;28;20140;-74
2022/11/03 08:02:33;;;;;;;7.45;4.97;;;;;;;7.37;100.00;101626.25;5043225;28;20507;-74
2022/11/03 08:05:02;;;;;;;11.80;5.38;;;;;;;7.41;100.00;101628.19;5039627;28;20057;-75
2022/11/03 08:07:31;;;;;;;9.98;4.97;;;;;;;7.43;100.00;101634.31;5039744;28;20049;-75
2022/11/03 08:10:00;;;;;;;9.52;4.82;;;;;;;7.41;100.00;101639.38;5038157;28;20128;-75
2022/11/03 08:12:28;;;;;;;12.07;4.80;;;;;;;7.44;100.00;101648.94;5042769;28;20041;-75
2022/11/03 08:14:57;;;;;;;9.77;4.97;;;;;;;7.48;100.00;101653.47;5036405;28;20053;-75
2022/11/03 08:17:30;;;;;;;7.40;5.10;;;;;;;7.47;100.00;101656.88;5042525;28;20091;-75
2022/11/03 08:19:58;;;;;;;9.23;5.47;;;;;;;7.45;100.00;101661.91;5035486;28;20541;-75
2022/11/03 08:22:26;;;;;;;7.15;4.95;;;;;;;7.48;100.00;101666.34;5042926;28;20102;-75
2022/11/03 08:24:55;;;;;;;12.68;5.00;;;;;;;7.49;100.00;101674.19;5040836;28;20052;-75
2022/11/03 08:27:24;;;;;;;7.22;4.28;;;;;;;7.52;100.00;101681.19;5039975;28;20052;-75
2022/11/03 08:29:52;;;;;;;7.63;4.80;;;;;;;7.54;100.00;101679.59;5040710;28;20107;-75
2022/11/03 08:32:21;;;;;;;7.85;4.65;;;;;;;7.59;100.00;101680.72;5037832;28;20053;-75
2022/11/03 08:34:51;;;;;;;8.60;4.22;;;;;;;7.63;100.00;101686.91;5044416;28;20057;-75
2022/11/03 08:37:19;;;;;;;9.20;4.40;;;;;;;7.63;100.00;101686.91;5044782;28;20056;-75
2022/11/03 08:39:48;;;;;;;6.30;4.32;;;;;;;7.59;100.00;101685.88;5046435;28;20484;-75
2022/11/03 08:42:16;;;;;;;11.32;4.97;;;;;;;7.57;100.00;101687.47;5044756;28;20056;-76
2022/11/03 08:44:45;;;;;;;9.02;4.82;;;;;;;7.51;100.00;101685.47;5045131;28;20053;-76
2022/11/03 08:47:14;;;;;;;11.57;5.10;;;;;;;7.49;100.00;101704.16;5048521;28;20126;-75
2022/11/03 08:49:42;;;;;;;8.15;5.30;;;;;;;7.51;100.00;101694.84;5045602;28;20095;-74
2022/11/03 08:52:12;;;;;;;7.68;5.03;;;;;;;7.53;100.00;101709.59;5041225;28;20076;-74
2022/11/03 08:54:41;;;;;;;7.45;5.07;;;;;;;7.56;100.00;101711.47;5041315;28;20045;-74
2022/11/03 08:57:09;;;;;;;11.07;5.20;;;;;;;7.61;100.00;101710.03;5039145;28;20064;-75
2022/11/03 08:59:38;;;;;;;8.35;5.22;;;;;;;7.63;100.00;101712.69;5045625;28;20041;-76
2022/11/03 09:02:06;;;;;;;9.93;5.45;;;;;;;7.66;100.00;101712.88;5043280;28;20161;-74
2022/11/03 09:04:35;;;;;;;7.15;5.00;;;;;;;7.63;100.00;101723.91;5042185;28;20565;-75
2022/11/03 09:07:03;;;;;;;9.95;5.75;;;;;;;7.62;100.00;101724.69;5044170;28;20056;-75
2022/11/03 09:09:34;;;;;;;7.53;5.78;;;;;;;7.64;100.00;101715.34;5037166;28;20045;-74
2022/11/03 09:12:02;;;;;;;6.88;4.82;;;;;;;7.67;100.00;101723.28;5045922;28;20363;-74
2022/11/03 09:14:31;;;;;;;7.97;5.03;;;;;;;7.68;100.00;101713.84;5045765;28;20566;-75
2022/11/03 09:16:59;;;;;;;8.38;5.18;;;;;;;7.69;100.00;101716.50;5045089;28;20107;-75
2022/11/03 09:19:28;;;;;;;7.38;5.15;;;;;;;7.66;99.99;101715.44;5042476;28;20392;-75
2022/11/03 09:21:58;;;;;;;8.95;4.95;;;;;;;7.65;100.00;101717.16;5045079;28;20564;-76
2022/11/03 09:24:27;;;;;;;11.02;5.30;;;;;;;7.65;100.00;101714.56;5037901;28;20049;-75
2022/11/03 09:26:57;;;;;;;8.20;4.70;;;;;;;7.62;100.00;101722.09;5042992;28;20501;-75
2022/11/03 09:29:25;;;;;;;8.80;4.68;;;;;;;7.58;100.00;101722.72;5047052;28;20679;-75
2022/11/03 09:31:54;;;;;;;7.78;4.53;;;;;;;7.55;99.02;101730.28;5044306;28;20119;-76
2022/11/03 09:34:22;;;;;;;7.95;4.88;;;;;;;7.52;98.51;101730.13;5036007;28;20138;-75
2022/11/03 09:36:51;;;;;;;8.02;4.55;;;;;;;7.51;99.08;101733.47;5044273;28;20045;-75
2022/11/03 09:39:19;;;;;;;8.77;5.45;;;;;;;7.49;98.76;101732.50;5044548;28;20053;-75
2022/11/03 09:41:48;;;;;;;8.10;5.43;;;;;;;7.47;98.70;101731.56;5041069;28;20038;-75
2022/11/03 09:44:18;;;;;;;8.50;4.70;;;;;;;7.47;100.00;101736.69;5038812;28;20095;-75
2022/11/03 09:46:47;;;;;;;7.50;4.75;;;;;;;7.52;99.83;101740.41;5044292;28;20098;-75
2022/11/03 09:49:17;;;;;;;9.13;5.05;;;;;;;7.51;98.78;101738.63;5040085;28;20049;-75
2022/11/03 09:51:46;;;;;;;10.65;5.00;;;;;;;7.52;99.24;101743.00;5041818;28;20045;-75
2022/11/03 09:54:25;;;;;;;6.95;4.32;;;;;;;7.53;100.00;101742.19;5043106;28;20099;-75
2022/11/03 09:56:54;;;;;;;9.68;4.95;;;;;;;7.51;99.07;101746.34;5044597;28;20665;-75
2022/11/03 09:59:24;;;;;;;7.57;4.97;;;;;;;7.49;99.50;101746.28;5043758;28;20162;-75
2022/11/03 10:01:54;;;;;;;7.15;4.63;;;;;;;7.46;99.06;101740.94;5041359;28;20650;-76
2022/11/03 10:04:27;;;;;;;8.52;4.82;;;;;;;7.46;99.43;101724.59;5038655;28;20615;-74
2022/11/03 10:06:57;;;;;;;9.10;5.18;;;;;;;7.46;99.44;101729.75;5041592;28;20410;-74
2022/11/03 10:09:29;;;;;;;7.55;4.57;;;;;;;7.41;98.13;101734.63;5042599;28;20087;-74
2022/11/03 10:11:58;;;;;;;9.23;5.05;;;;;;;7.37;98.85;101731.81;5042451;28;20053;-76
2022/11/03 10:14:28;;;;;;;6.35;4.05;;;;;;;7.34;99.92;101732.50;5042456;28;20057;-74
2022/11/03 10:17:00;;;;;;;7.88;4.68;;;;;;;7.37;100.00;101744.69;5038269;28;20061;-74
2022/11/03 10:19:29;;;;;;;5.33;4.23;;;;;;;7.36;100.00;101735.19;5038925;28;20077;-76
2022/11/03 10:21:57;;;;;;;7.13;4.55;;;;;;;7.38;98.17;101741.31;5039169;28;20298;-76
2022/11/03 10:24:32;;;;;;;8.90;4.85;;;;;;;7.38;98.64;101746.47;5040217;28;20049;-77
2022/11/03 10:27:00;;;;;;;7.88;4.57;;;;;;;7.40;98.65;101750.00;5040429;28;20048;-76
2022/11/03 10:29:32;;;;;;;5.35;4.18;;;;;;;7.41;97.73;101741.47;5041243;28;20077;-75
2022/11/03 10:32:01;;;;;;;6.50;4.30;;;;;;;7.40;98.19;101729.38;5039420;28;20056;-76
2022/11/03 10:34:35;;;;;;;6.43;3.80;;;;;;;7.41;97.84;101736.34;5040778;28;20052;-74
2022/11/03 10:37:19;;;;;;;8.63;4.90;;;;;;;7.41;98.50;101738.91;5041009;28;20541;-74
2022/11/03 10:39:53;;;;;;;6.68;4.13;;;;;;;7.42;98.14;101743.25;5044053;28;20045;-74
2022/11/03 10:42:25;;;;;;;7.35;4.28;;;;;;;7.41;97.78;101747.50;5042359;28;20054;-76
2022/11/03 10:45:09;;;;;;;6.60;3.83;;;;;;;7.41;97.49;101744.94;5042251;28;20102;-76
2022/11/03 10:47:38;;;;;;;7.57;4.22;;;;;;;7.39;97.60;101750.81;5019369;28;20042;-74
2022/11/03 10:50:22;;;;;;;7.00;4.80;;;;;;;7.35;98.78;101747.16;5018354;28;20050;-74
2022/11/03 10:52:51;;;;;;;6.53;4.00;;;;;;;7.37;99.89;101749.81;5021568;28;20492;-74
2022/11/03 10:55:21;;;;;;;5.70;4.07;;;;;;;7.40;98.73;101765.44;5024707;28;20120;-74
2022/11/03 10:57:58;;;;;;;5.88;4.10;;;;;;;7.43;99.02;101750.19;5027307;28;20487;-75
2022/11/03 11:00:33;;;;;;;6.43;4.53;;;;;;;7.38;97.99;101757.66;5023008;28;20622;-77
2022/11/03 11:03:02;;;;;;;9.48;4.57;;;;;;;7.34;98.25;101765.97;5015988;28;20056;-75
2022/11/03 11:05:30;;;;;;;5.57;4.07;;;;;;;7.38;98.67;101774.78;5017437;28;20096;-75
2022/11/03 11:08:00;;;;;;;7.90;3.92;;;;;;;7.39;98.67;101769.72;5014504;28;20049;-76
2022/11/03 11:10:31;;;;;;;4.80;3.50;;;;;;;7.40;98.49;101766.34;5014369;28;20057;-75
2022/11/03 11:13:29;;;;;;;6.68;4.15;;;;;;;7.41;97.80;101762.09;5018470;28;20053;-74
2022/11/03 11:16:01;;;;;;;6.28;4.15;;;;;;;7.39;97.45;101735.34;5018287;28;20068;-75
2022/11/03 11:19:14;;;;;;;7.38;4.28;;;;;;;7.36;97.47;101745.50;5021137;28;20149;-76
2022/11/03 11:22:01;;;;;;;5.30;3.65;;;;;;;7.39;98.93;101753.38;5013454;28;20575;-76
2022/11/03 11:25:05;;;;;;;6.28;3.65;;;;;;;7.40;98.14;101745.75;5022022;28;20057;-74
2022/11/03 11:27:58;;;;;;;8.15;4.45;;;;;;;7.44;98.18;101762.25;4972621;28;20049;-75
2022/11/03 11:30:44;;;;;;;;;;;;;;;7.46;98.47;101758.97;5011128;28;20081;-75
2022/11/03 11:33:24;;;;;;;4.95;3.47;;;;;;;7.43;97.37;101761.38;5010109;28;19971;-74
2022/11/03 11:36:28;;;;;;;6.03;3.53;;;;;;;7.41;97.74;101762.09;5021333;28;20050;-74
2022/11/03 11:38:56;;;;;;;;;;;;;;;7.42;97.72;101769.00;5019418;28;20041;-74
2022/11/03 11:41:57;;;;;;;6.70;3.05;;;;;;;7.42;97.11;101781.88;5022852;28;19920;-76
2022/11/03 11:44:53;;;;;;;6.13;3.80;;;;;;;7.41;96.54;101785.25;5024605;28;20103;-74
2022/11/03 11:47:49;;;;;;;4.78;3.45;;;;;;;7.42;96.80;101784.44;5005489;28;20053;-74
2022/11/03 11:50:30;;;;;;;6.35;3.65;;;;;;;7.38;96.89;101773.09;5016924;28;20050;-75
2022/11/03 11:53:18;;;;;;;6.00;3.60;;;;;;;7.32;97.05;101768.47;5018182;28;20061;-74
2022/11/03 11:55:51;;;;;;;7.03;3.88;;;;;;;7.29;97.55;101769.97;5023502;28;20561;-76
2022/11/03 11:58:27;;;;;;;6.07;3.58;;;;;;;7.24;97.01;101774.84;5010438;28;20046;-74
2022/11/03 12:01:01;;;;;;;6.55;3.80;;;;;;;7.25;98.42;101781.78;5021062;28;20106;-77
2022/11/03 12:03:37;;;;;;;7.55;4.30;;;;;;;7.28;98.64;101779.41;5019864;28;20115;-76
2022/11/03 12:06:08;;;;;;;4.63;3.30;;;;;;;7.29;97.86;101781.16;5013553;28;20131;-74
2022/11/03 12:08:37;;;;;;;5.65;3.40;;;;;;;7.27;97.73;101785.31;5020679;28;20044;-74